createdAt,value
2018-07-30T00:01:08.985Z,20.60
2018-07-30T00:03:37.525Z,20.60
2018-07-30T00:06:06.079Z,20.60
2018-07-30T00:08:34.589Z,20.70
2018-07-30T00:11:03.224Z,20.70
2018-07-30T00:13:31.761Z,20.70
2018-07-30T00:16:00.403Z,20.80
2018-07-30T00:18:28.938Z,20.80
2018-07-30T00:20:57.531Z,20.80
2018-07-30T00:23:26.033Z,20.80
2018-07-30T00:25:54.568Z,20.80
2018-07-30T00:30:51.271Z,20.80
2018-07-30T00:33:19.785Z,20.80
2018-07-30T00:35:48.951Z,20.80
2018-07-30T00:38:17.498Z,20.80
2018-07-30T00:40:46.047Z,20.80
2018-07-30T00:43:14.538Z,20.80
2018-07-30T00:45:43.076Z,20.80
2018-07-30T00:48:11.693Z,20.80
2018-07-30T00:50:40.202Z,20.80
2018-07-30T00:55:36.947Z,20.80
2018-07-30T01:00:33.737Z,20.80
2018-07-30T01:03:02.281Z,20.80
2018-07-30T01:05:30.777Z,20.80
2018-07-30T01:10:27.555Z,20.80
2018-07-30T01:12:56.187Z,20.80
2018-07-30T01:15:24.729Z,20.80
2018-07-30T01:17:53.289Z,20.80
2018-07-30T01:22:50.416Z,20.80
2018-07-30T01:25:18.981Z,20.80
2018-07-30T01:27:47.536Z,20.80
2018-07-30T01:30:16.252Z,20.80
2018-07-30T01:32:44.938Z,20.80
2018-07-30T01:35:13.569Z,20.80
2018-07-30T01:37:42.110Z,20.80
2018-07-30T01:40:10.597Z,20.70
2018-07-30T01:42:39.181Z,20.70
2018-07-30T01:45:07.787Z,20.70
2018-07-30T01:47:36.293Z,20.70
2018-07-30T01:55:01.453Z,20.70
2018-07-30T01:57:30.002Z,20.80
2018-07-30T01:59:58.597Z,20.80
2018-07-30T02:02:27.171Z,20.80
2018-07-30T02:04:55.757Z,20.80
2018-07-30T02:07:24.345Z,20.80
2018-07-30T02:09:52.918Z,20.80
2018-07-30T02:12:21.505Z,20.90
2018-07-30T02:14:49.999Z,20.90
2018-07-30T02:17:18.548Z,21.00
2018-07-30T02:19:47.146Z,21.00
2018-07-30T02:22:15.737Z,21.10
2018-07-30T02:24:44.228Z,21.10
2018-07-30T02:27:12.795Z,21.00
2018-07-30T02:29:41.342Z,21.00
2018-07-30T02:32:09.918Z,20.90
2018-07-30T02:34:38.482Z,20.90
2018-07-30T02:37:07.086Z,20.90
2018-07-30T02:39:35.651Z,20.80
2018-07-30T02:44:32.480Z,20.70
2018-07-30T02:47:01.021Z,20.60
2018-07-30T02:49:29.537Z,20.60
2018-07-30T02:51:58.136Z,20.50
2018-07-30T02:54:26.653Z,20.40
2018-07-30T02:56:55.221Z,20.30
2018-07-30T03:01:52.024Z,20.00
2018-07-30T03:04:20.548Z,19.90
2018-07-30T03:06:49.118Z,19.80
2018-07-30T03:09:17.663Z,19.70
2018-07-30T03:11:46.524Z,19.60
2018-07-30T03:14:15.069Z,19.60
2018-07-30T03:16:43.604Z,19.50
2018-07-30T03:19:12.159Z,19.50
2018-07-30T03:21:40.654Z,19.40
2018-07-30T03:24:09.243Z,19.40
2018-07-30T03:29:06.082Z,19.50
2018-07-30T03:31:34.630Z,19.50
2018-07-30T03:34:03.206Z,19.60
2018-07-30T03:36:31.742Z,19.60
2018-07-30T03:39:00.276Z,19.60
2018-07-30T03:41:28.792Z,19.60
2018-07-30T03:43:57.313Z,19.60
2018-07-30T03:46:25.849Z,19.60
2018-07-30T03:48:54.405Z,19.70
2018-07-30T03:51:22.978Z,19.70
2018-07-30T03:53:51.528Z,19.70
2018-07-30T03:56:20.076Z,19.70
2018-07-30T03:58:48.605Z,19.70
2018-07-30T04:01:17.131Z,19.70
2018-07-30T04:03:45.682Z,19.80
2018-07-30T04:06:14.293Z,19.90
2018-07-30T04:08:42.809Z,20.00
2018-07-30T04:11:11.293Z,20.10
2018-07-30T04:13:39.824Z,20.10
2018-07-30T04:16:08.345Z,20.10
2018-07-30T04:18:36.902Z,20.10
2018-07-30T04:21:05.461Z,20.10
2018-07-30T04:23:33.970Z,20.00
2018-07-30T04:26:02.518Z,20.00
2018-07-30T04:28:31.034Z,20.00
2018-07-30T04:30:59.625Z,20.00
2018-07-30T04:33:28.169Z,20.00
2018-07-30T04:38:24.965Z,20.10
2018-07-30T04:40:53.547Z,20.10
2018-07-30T04:43:22.101Z,20.20
2018-07-30T04:45:50.640Z,20.20
2018-07-30T04:48:19.209Z,20.20
2018-07-30T04:50:47.709Z,20.30
2018-07-30T04:53:16.259Z,20.50
2018-07-30T04:55:44.804Z,20.60
2018-07-30T04:58:13.315Z,20.70
2018-07-30T05:00:41.862Z,20.80
2018-07-30T05:03:10.392Z,20.90
2018-07-30T05:05:39.174Z,20.90
2018-07-30T05:08:07.780Z,21.00
2018-07-30T05:10:36.361Z,21.00
2018-07-30T05:13:04.932Z,21.00
2018-07-30T05:15:33.476Z,21.00
2018-07-30T05:18:02.008Z,21.00
2018-07-30T05:20:30.545Z,21.00
2018-07-30T05:22:59.131Z,21.00
2018-07-30T05:25:27.635Z,21.00
2018-07-30T05:27:56.181Z,21.00
2018-07-30T05:30:24.729Z,20.90
2018-07-30T05:32:53.221Z,20.60
2018-07-30T05:35:21.761Z,20.30
2018-07-30T05:37:50.291Z,20.00
2018-07-30T05:40:18.850Z,19.80
2018-07-30T05:42:47.480Z,19.50
2018-07-30T05:45:15.970Z,19.30
2018-07-30T05:47:44.540Z,19.20
2018-07-30T05:50:13.074Z,19.10
2018-07-30T05:52:41.622Z,19.20
2018-07-30T05:55:10.173Z,19.20
2018-07-30T05:57:38.733Z,19.30
2018-07-30T06:00:08.011Z,19.30
2018-07-30T06:02:36.562Z,19.30
2018-07-30T06:05:06.673Z,19.30
2018-07-30T06:07:35.578Z,19.30
2018-07-30T06:10:04.865Z,19.30
2018-07-30T06:12:33.471Z,19.30
2018-07-30T06:15:02.046Z,19.30
2018-07-30T06:17:30.622Z,19.30
2018-07-30T06:19:59.178Z,19.40
2018-07-30T06:22:27.702Z,19.50
2018-07-30T06:24:56.244Z,19.70
2018-07-30T06:27:24.873Z,19.80
2018-07-30T06:29:53.422Z,20.00
2018-07-30T06:32:22.085Z,20.20
2018-07-30T06:34:50.644Z,20.40
2018-07-30T06:37:19.486Z,20.60
2018-07-30T06:39:48.022Z,20.70
2018-07-30T06:42:16.603Z,20.80
2018-07-30T06:44:45.209Z,21.00
2018-07-30T06:47:13.846Z,21.20
2018-07-30T06:49:42.722Z,21.60
2018-07-30T06:52:11.447Z,21.90
2018-07-30T06:54:39.945Z,22.30
2018-07-30T06:57:08.508Z,22.50
2018-07-30T06:59:37.017Z,22.70
2018-07-30T07:04:34.015Z,23.30
2018-07-30T07:07:02.786Z,23.60
2018-07-30T07:09:31.433Z,23.70
2018-07-30T07:11:59.938Z,23.80
2018-07-30T07:14:28.498Z,23.80
2018-07-30T07:16:57.129Z,23.70
2018-07-30T07:19:25.677Z,23.60
2018-07-30T07:21:54.269Z,23.60
2018-07-30T07:26:51.072Z,23.70
2018-07-30T07:29:19.573Z,23.80
2018-07-30T07:31:48.131Z,24.00
2018-07-30T07:34:16.663Z,24.20
2018-07-30T07:36:45.235Z,24.40
2018-07-30T07:39:13.769Z,24.50
2018-07-30T07:41:42.315Z,24.70
2018-07-30T07:44:10.908Z,25.00
2018-07-30T07:49:07.654Z,25.50
2018-07-30T07:51:36.244Z,25.60
2018-07-30T07:54:04.973Z,25.60
2018-07-30T07:56:33.613Z,25.70
2018-07-30T07:59:02.193Z,25.70
2018-07-30T08:01:30.820Z,25.70
2018-07-30T08:03:59.615Z,25.80
2018-07-30T08:06:28.221Z,25.80
2018-07-30T08:08:56.786Z,25.80
2018-07-30T08:11:25.327Z,25.90
2018-07-30T08:13:54.048Z,26.00
2018-07-30T08:16:22.686Z,26.10
2018-07-30T08:18:51.189Z,26.30
2018-07-30T08:21:19.801Z,26.60
2018-07-30T08:23:48.398Z,26.60
2018-07-30T08:26:16.922Z,26.60
2018-07-30T08:28:45.450Z,26.50
2018-07-30T08:31:14.079Z,26.30
2018-07-30T08:33:42.606Z,26.20
2018-07-30T08:36:11.175Z,26.20
2018-07-30T08:41:08.025Z,26.50
2018-07-30T08:43:36.686Z,26.60
2018-07-30T08:46:05.275Z,26.70
2018-07-30T08:48:34.046Z,26.80
2018-07-30T08:51:02.729Z,26.90
2018-07-30T08:53:31.253Z,27.00
2018-07-30T08:55:59.832Z,27.20
2018-07-30T08:58:28.409Z,27.40
2018-07-30T09:00:56.940Z,27.40
2018-07-30T09:03:25.505Z,27.60
2018-07-30T09:08:22.890Z,27.80
2018-07-30T09:10:51.477Z,27.90
2018-07-30T09:13:20.023Z,28.10
2018-07-30T09:15:48.577Z,28.20
2018-07-30T09:18:17.156Z,28.40
2018-07-30T09:20:45.673Z,28.70
2018-07-30T09:23:14.160Z,29.00
2018-07-30T09:25:42.737Z,29.10
2018-07-30T09:28:11.298Z,29.10
2018-07-30T09:30:39.869Z,29.20
2018-07-30T09:33:08.841Z,29.30
2018-07-30T09:35:37.286Z,29.30
2018-07-30T09:38:05.850Z,29.40
2018-07-30T09:40:34.365Z,29.40
2018-07-30T09:43:02.970Z,29.30
2018-07-30T09:45:31.536Z,29.10
2018-07-30T09:48:00.114Z,28.80
2018-07-30T09:50:28.752Z,28.50
2018-07-30T09:55:25.468Z,28.30
2018-07-30T10:00:27.503Z,27.90
2018-07-30T10:02:56.059Z,27.80
2018-07-30T10:05:24.614Z,27.70
2018-07-30T10:07:53.353Z,27.60
2018-07-30T10:10:22.018Z,27.90
2018-07-30T10:12:50.539Z,28.10
2018-07-30T10:15:19.057Z,28.20
2018-07-30T10:17:47.955Z,28.20
2018-07-30T10:20:16.521Z,28.20
2018-07-30T10:22:45.428Z,28.20
2018-07-30T10:25:13.929Z,28.30
2018-07-30T10:27:42.535Z,28.50
2018-07-30T10:30:11.109Z,28.50
2018-07-30T10:32:39.704Z,28.60
2018-07-30T10:35:08.290Z,28.70
2018-07-30T10:37:36.874Z,28.90
2018-07-30T10:40:05.446Z,29.40
2018-07-30T10:42:33.976Z,29.50
2018-07-30T10:45:02.551Z,29.70
2018-07-30T10:47:31.200Z,29.70
2018-07-30T10:49:59.754Z,29.50
2018-07-30T10:52:28.285Z,29.50
2018-07-30T10:54:57.068Z,29.40
2018-07-30T10:57:25.629Z,29.50
2018-07-30T10:59:54.151Z,29.70
2018-07-30T11:02:22.950Z,29.70
2018-07-30T11:04:51.461Z,29.60
2018-07-30T11:09:48.297Z,29.70
2018-07-30T11:12:16.809Z,29.40
2018-07-30T11:14:45.323Z,29.30
2018-07-30T11:17:13.884Z,29.20
2018-07-30T11:19:42.448Z,29.30
2018-07-30T11:22:11.069Z,29.30
2018-07-30T11:24:39.617Z,29.40
2018-07-30T11:27:08.128Z,29.40
2018-07-30T11:29:36.666Z,29.60
2018-07-30T11:32:05.177Z,29.70
2018-07-30T11:37:02.224Z,29.80
2018-07-30T11:39:30.772Z,29.80
2018-07-30T11:41:59.293Z,30.00
2018-07-30T11:46:56.067Z,30.30
2018-07-30T11:49:24.646Z,30.30
2018-07-30T11:51:53.150Z,30.40
2018-07-30T11:54:22.016Z,30.30
2018-07-30T11:56:50.554Z,30.60
2018-07-30T11:59:19.066Z,30.80
2018-07-30T12:01:47.911Z,31.00
2018-07-30T12:04:16.449Z,31.10
2018-07-30T12:06:44.988Z,31.10
2018-07-30T12:09:13.672Z,30.90
2018-07-30T12:11:42.186Z,31.10
2018-07-30T12:14:10.679Z,31.50
2018-07-30T12:16:39.212Z,31.90
2018-07-30T12:19:07.735Z,32.10
2018-07-30T12:21:36.321Z,32.20
2018-07-30T12:24:04.895Z,32.50
2018-07-30T12:26:33.519Z,32.80
2018-07-30T12:31:30.336Z,32.70
2018-07-30T12:33:58.942Z,32.30
2018-07-30T12:36:27.630Z,32.30
2018-07-30T12:41:24.408Z,32.40
2018-07-30T12:48:50.118Z,32.40
2018-07-30T12:51:18.660Z,32.40
2018-07-30T12:53:47.183Z,32.70
2018-07-30T12:56:15.667Z,33.10
2018-07-30T12:58:44.188Z,33.10
2018-07-30T13:01:12.757Z,33.10
2018-07-30T13:03:41.297Z,33.20
2018-07-30T13:06:09.853Z,33.30
2018-07-30T13:08:38.331Z,33.50
2018-07-30T13:11:06.873Z,33.60
2018-07-30T13:13:35.377Z,33.60
2018-07-30T13:16:03.937Z,33.60
2018-07-30T13:18:32.503Z,33.80
2018-07-30T13:21:01.071Z,33.80
2018-07-30T13:23:29.612Z,33.80
2018-07-30T13:28:26.360Z,33.60
2018-07-30T13:30:54.874Z,33.90
2018-07-30T13:33:23.410Z,33.60
2018-07-30T13:35:51.957Z,33.50
2018-07-30T13:38:20.473Z,33.70
2018-07-30T13:40:48.973Z,33.80
2018-07-30T13:43:17.528Z,33.80
2018-07-30T13:45:46.021Z,33.80
2018-07-30T13:48:14.605Z,33.60
2018-07-30T13:50:43.112Z,33.60
2018-07-30T13:53:11.697Z,33.60
2018-07-30T13:55:40.248Z,33.60
2018-07-30T13:58:08.773Z,33.50
2018-07-30T14:03:05.934Z,33.30
2018-07-30T14:05:34.491Z,33.20
2018-07-30T14:08:03.053Z,33.10
2018-07-30T14:10:31.609Z,32.90
2018-07-30T14:15:28.423Z,32.50
2018-07-30T14:17:57.296Z,32.50
2018-07-30T14:20:25.841Z,32.50
2018-07-30T14:22:54.442Z,32.40
2018-07-30T14:25:22.981Z,32.30
2018-07-30T17:50:26.716Z,35.10
2018-07-30T17:52:55.256Z,34.20
2018-07-30T17:55:24.003Z,33.50
2018-07-30T17:57:52.545Z,33.00
2018-07-30T18:00:21.405Z,32.50
2018-07-30T18:02:50.412Z,32.00
2018-07-30T18:05:19.942Z,31.60
2018-07-30T18:07:49.752Z,31.30
2018-07-30T18:10:20.503Z,31.00
2018-07-30T18:12:49.025Z,30.80
2018-07-30T18:15:17.529Z,30.50
2018-07-30T18:17:46.045Z,30.30
2018-07-30T18:20:14.595Z,30.20
2018-07-30T18:22:43.128Z,30.50
2018-07-30T18:25:11.674Z,31.10
2018-07-30T18:27:40.202Z,31.70
2018-07-30T18:30:08.743Z,32.20
2018-07-30T18:32:37.405Z,32.60
2018-07-30T18:35:05.915Z,32.50
2018-07-30T18:37:34.475Z,32.40
2018-07-30T18:40:03.055Z,32.10
2018-07-30T18:42:31.601Z,31.90
2018-07-30T18:45:00.148Z,31.60
2018-07-30T18:47:28.625Z,31.30
2018-07-30T18:49:57.139Z,30.80
2018-07-30T18:52:25.640Z,30.30
2018-07-30T18:54:54.115Z,29.90
2018-07-30T18:57:22.668Z,29.60
2018-07-30T18:59:51.161Z,29.30
2018-07-30T19:02:19.685Z,29.10
2018-07-30T19:04:48.205Z,28.90
2018-07-30T19:07:16.692Z,28.60
2018-07-30T19:09:45.179Z,28.40
2018-07-30T19:12:13.723Z,28.20
2018-07-30T19:14:42.318Z,28.00
2018-07-30T19:17:10.847Z,27.70
2018-07-30T19:19:39.315Z,27.50
2018-07-30T19:22:07.857Z,27.30
2018-07-30T19:24:36.371Z,27.10
2018-07-30T19:27:04.888Z,26.90
2018-07-30T19:29:33.401Z,26.80
2018-07-30T19:32:01.962Z,26.70
2018-07-30T19:34:30.546Z,26.60
2018-07-30T19:39:27.274Z,26.20
2018-07-30T19:41:55.751Z,26.00
2018-07-30T19:44:24.322Z,25.80
2018-07-30T19:46:52.783Z,25.70
2018-07-30T19:49:21.282Z,25.50
2018-07-30T19:51:49.802Z,25.40
2018-07-30T19:56:46.867Z,25.20
2018-07-30T20:01:43.649Z,25.00
2018-07-30T20:04:13.019Z,24.80
2018-07-30T20:06:41.544Z,24.80
2018-07-30T20:09:11.693Z,24.70
2018-07-30T20:11:40.233Z,24.70
2018-07-30T20:14:08.728Z,24.50
2018-07-30T20:16:37.418Z,24.50
2018-07-30T20:19:06.016Z,24.40
2018-07-30T20:21:34.575Z,24.30
2018-07-30T20:24:03.047Z,24.30
2018-07-30T20:28:59.763Z,24.20
2018-07-30T20:31:28.311Z,24.10
2018-07-30T20:33:58.041Z,24.00
2018-07-30T20:36:26.543Z,24.00
2018-07-30T20:38:55.198Z,23.90
2018-07-30T20:41:24.228Z,23.90
2018-07-30T20:43:53.423Z,23.80
2018-07-30T20:46:22.123Z,23.80
2018-07-30T20:48:50.827Z,23.70
2018-07-30T20:53:47.554Z,23.70
2018-07-30T20:56:16.073Z,23.60
2018-07-30T20:58:44.561Z,23.50
2018-07-30T21:01:13.171Z,23.40
2018-07-30T21:03:41.793Z,23.40
2018-07-30T21:06:10.276Z,23.30
2018-07-30T21:08:38.873Z,23.30
2018-07-30T21:11:07.432Z,23.20
2018-07-30T21:13:35.994Z,23.20
2018-07-30T21:16:04.559Z,23.10
2018-07-30T21:18:33.274Z,23.10
2018-07-30T21:21:01.945Z,23.00
2018-07-30T21:23:30.504Z,23.00
2018-07-30T21:25:58.999Z,22.90
2018-07-30T21:28:27.724Z,22.90
2018-07-30T21:30:56.392Z,22.90
2018-07-30T21:33:24.944Z,22.80
2018-07-30T21:35:53.495Z,22.70
2018-07-30T21:38:22.051Z,22.70
2018-07-30T21:40:50.563Z,22.60
2018-07-30T21:43:19.330Z,22.60
2018-07-30T21:45:47.879Z,22.60
2018-07-30T21:48:16.778Z,22.50
2018-07-30T21:50:45.358Z,22.50
2018-07-30T21:53:13.862Z,22.50
2018-07-30T21:55:42.732Z,22.50
2018-07-30T21:58:11.228Z,22.40
2018-07-30T22:00:39.792Z,22.40
2018-07-30T22:03:09.795Z,22.40
2018-07-30T22:05:38.321Z,22.30
2018-07-30T22:08:06.852Z,22.30
2018-07-30T22:13:04.624Z,22.20
2018-07-30T22:15:33.125Z,22.20
2018-07-30T22:18:01.875Z,22.10
2018-07-30T22:20:30.624Z,22.10
2018-07-30T22:22:59.473Z,22.10
2018-07-30T22:25:27.945Z,22.10
2018-07-30T22:27:56.490Z,22.10
2018-07-30T22:30:24.941Z,22.00
2018-07-30T22:32:54.541Z,22.00
2018-07-30T22:35:23.671Z,22.00
2018-07-30T22:37:52.784Z,21.90
2018-07-30T22:40:22.341Z,22.00
2018-07-30T22:45:21.835Z,22.00
2018-07-30T22:47:50.363Z,22.00
2018-07-30T22:50:19.146Z,22.00
2018-07-30T22:52:47.698Z,21.90
2018-07-30T22:55:16.756Z,21.90
2018-07-30T22:57:46.214Z,22.00
2018-07-30T23:00:15.088Z,22.00
2018-07-30T23:02:45.357Z,22.00
2018-07-30T23:05:14.106Z,22.00
2018-07-30T23:07:43.733Z,22.00
2018-07-30T23:10:12.243Z,22.00
2018-07-30T23:12:40.743Z,22.00
2018-07-30T23:15:11.527Z,22.00
2018-07-30T23:17:40.770Z,22.00
2018-07-30T23:20:09.392Z,22.00
2018-07-30T23:22:37.846Z,22.00
2018-07-30T23:25:06.353Z,21.90
2018-07-30T23:27:36.311Z,21.90
2018-07-30T23:30:05.659Z,21.90
2018-07-30T23:32:34.642Z,21.90
2018-07-30T23:35:03.151Z,21.90
2018-07-30T23:37:31.669Z,21.90
2018-07-30T23:40:00.127Z,22.00
2018-07-30T23:44:57.584Z,22.20
2018-07-30T23:47:26.205Z,22.20
2018-07-30T23:49:54.629Z,22.10
2018-07-30T23:52:23.114Z,22.10
2018-07-30T23:54:51.628Z,22.00
2018-07-30T23:57:20.116Z,22.00
2018-07-30T23:59:48.611Z,22.00
